Brookhaven Weather

Current Time: 00:10 Zulu

HWV METARs

Local Time Temperature Dew Point Wind Direction Wind Speed Wind Gust Sky Vis.
10/20/2019 11:56:00 PM 11.7° c 10.0° c 20° 5 kt - SCT 1100 ft AGL 8.0 sm
10/20/2019 10:56:00 PM 12.2° c 11.1° c variable 3 kt - BKN 10000 ft AGL 6.0 sm
10/20/2019 9:56:00 PM 12.8° c 10.6° c variable 3 kt - BKN 6000 ft AGL 8.0 sm
10/20/2019 8:56:00 PM 13.3° c 10.6° c variable 0 kt - BKN 6500 ft AGL 6.0 sm

ISP TAF:

KISP 202333Z 2100/2124 03011KT 5SM -RA FEW010 SCT020 BKN040 TEMPO 2100/2102 3SM -RA SCT010 BKN020 
FM210200 05011G17KT P6SM -SHRA BKN015 BKN040 
FM210600 03012G18KT P6SM BKN020 
FM211300 03012G17KT P6SM SCT020 
FM211900 06009KT P6SM FEW030
Weather data provided by aviationweather.gov. Pilots must verify weather before flying.